Time;durP1;ratioP1;P1;durP2;ratioP2;P2;SDS_P1;SDS_P2;PMS_P1;PMS_P2;Temp;Humidity;BMP_temperature;BMP_pressure;BME280_temperature;BME280_humidity;BME280_pressure;Samples;Min_cycle;Max_cycle;Signal;HPM_P1;HPM_P2
2021/08/19 00:00:43;;;;;;;11.83;9.73;;;;;;;14.35;90.77;94514.58;1557934;92;21042;-54
2021/08/19 00:03:10;;;;;;;11.90;9.30;;;;;;;14.35;90.67;94517.34;1557982;90;20994;-55
2021/08/19 00:05:38;;;;;;;12.50;8.98;;;;;;;14.34;90.73;94511.67;1558004;92;20978;-55
2021/08/19 00:08:06;;;;;;;14.70;10.03;;;;;;;14.34;90.74;94519.34;1558074;91;21039;-55
2021/08/19 00:10:35;;;;;;;12.78;9.70;;;;;;;14.37;90.70;94517.63;1557954;92;21094;-55
2021/08/19 00:13:03;;;;;;;11.30;9.60;;;;;;;14.36;90.95;94511.95;1558014;92;21625;-55
2021/08/19 00:15:30;;;;;;;10.18;9.15;;;;;;;14.38;90.94;94517.77;1558066;92;21002;-55
2021/08/19 00:17:57;;;;;;;12.10;9.33;;;;;;;14.36;90.88;94512.70;1558028;92;21168;-54
2021/08/19 00:20:25;;;;;;;11.75;8.63;;;;;;;14.36;90.68;94516.86;1557930;92;21609;-54
2021/08/19 00:22:54;;;;;;;9.20;8.20;;;;;;;14.38;90.76;94513.63;1557987;92;21062;-55
2021/08/19 00:25:24;;;;;;;12.65;9.80;;;;;;;14.40;90.56;94511.14;1557980;92;21073;-55
2021/08/19 00:27:51;;;;;;;9.95;8.05;;;;;;;14.36;90.40;94514.08;1587770;90;21475;-54
2021/08/19 00:30:20;;;;;;;10.53;7.78;;;;;;;14.33;90.45;94511.53;1557990;92;20971;-54
2021/08/19 00:32:49;;;;;;;7.53;6.35;;;;;;;14.28;90.57;94507.41;1557975;92;21003;-54
2021/08/19 00:35:16;;;;;;;9.45;6.78;;;;;;;14.25;90.42;94513.13;1558009;91;21007;-54
2021/08/19 00:37:44;;;;;;;9.58;7.75;;;;;;;14.21;90.33;94512.55;1557923;90;21073;-55
2021/08/19 00:40:13;;;;;;;10.20;7.45;;;;;;;14.15;90.22;94515.19;1558116;91;21011;-55
2021/08/19 00:42:39;;;;;;;10.35;8.90;;;;;;;14.14;90.25;94510.14;1558139;92;21303;-56
2021/08/19 00:45:08;;;;;;;8.10;6.80;;;;;;;14.12;90.50;94512.59;1557915;91;21079;-55
2021/08/19 00:47:38;;;;;;;10.00;7.00;;;;;;;14.13;90.78;94511.36;1572157;90;21042;-55
2021/08/19 00:50:07;;;;;;;7.72;6.72;;;;;;;14.10;90.89;94508.16;1587660;89;21091;-55
2021/08/19 00:52:36;;;;;;;9.25;6.83;;;;;;;14.10;90.77;94515.08;1587712;90;21446;-55
2021/08/19 00:55:07;;;;;;;7.20;6.50;;;;;;;14.03;90.16;94507.16;1587634;90;21027;-55
2021/08/19 00:57:39;;;;;;;8.23;6.40;;;;;;;14.00;90.26;94510.88;1587545;90;21019;-55
2021/08/19 01:00:09;;;;;;;7.33;6.45;;;;;;;13.98;90.47;94507.83;1557939;92;21002;-55
2021/08/19 01:02:40;;;;;;;7.60;6.12;;;;;;;13.95;90.42;94510.91;1557906;91;21067;-55
2021/08/19 01:05:11;;;;;;;9.43;6.90;;;;;;;13.93;90.43;94503.72;1572255;90;21466;-55
2021/08/19 01:07:38;;;;;;;7.70;6.67;;;;;;;13.94;90.71;94498.93;1587723;90;21116;-56
2021/08/19 01:10:07;;;;;;;8.70;6.25;;;;;;;13.96;90.48;94504.78;1587708;89;21581;-53
2021/08/19 01:12:34;;;;;;;8.23;6.37;;;;;;;13.90;90.28;94499.13;1587863;90;21038;-55
2021/08/19 01:15:04;;;;;;;7.30;5.80;;;;;;;13.90;90.51;94503.89;1587566;89;21034;-55
2021/08/19 01:17:30;;;;;;;7.85;6.92;;;;;;;13.90;90.64;94495.59;1587742;90;21041;-55
2021/08/19 01:19:58;;;;;;;7.72;6.87;;;;;;;13.86;90.70;94497.78;1587833;90;21454;-54
2021/08/19 01:22:26;;;;;;;8.50;6.87;;;;;;;13.84;90.89;94500.27;1587797;90;21077;-54
2021/08/19 01:24:54;;;;;;;9.58;6.97;;;;;;;13.82;90.97;94495.83;1587815;90;21037;-55
2021/08/19 01:27:23;;;;;;;7.35;5.87;;;;;;;13.83;91.05;94494.59;1587817;90;21589;-54
2021/08/19 01:29:50;;;;;;;7.72;5.90;;;;;;;13.85;91.16;94496.26;1587920;90;21195;-56
2021/08/19 01:32:18;;;;;;;10.35;6.10;;;;;;;13.86;91.17;94496.41;1587748;89;21186;-55
2021/08/19 01:34:47;;;;;;;9.20;7.03;;;;;;;13.86;91.35;94496.41;1587755;90;21015;-54
2021/08/19 01:37:14;;;;;;;7.47;6.75;;;;;;;13.87;91.38;94502.08;1587738;89;21050;-54
2021/08/19 01:39:42;;;;;;;7.12;6.42;;;;;;;13.89;91.03;94499.59;1587726;90;21565;-54
2021/08/19 01:42:09;;;;;;;6.50;5.60;;;;;;;13.91;91.00;94497.12;1558180;92;21002;-57
2021/08/19 01:44:35;;;;;;;6.20;5.15;;;;;;;13.91;90.54;94497.90;1558331;92;21151;-54
2021/08/19 01:47:04;;;;;;;6.95;6.25;;;;;;;13.87;90.29;94496.55;1557961;92;21054;-54
2021/08/19 01:49:33;;;;;;;7.05;6.40;;;;;;;13.89;90.34;94485.77;1587943;90;21039;-54
2021/08/19 01:52:01;;;;;;;9.40;6.10;;;;;;;13.89;90.38;94485.77;1558089;92;21018;-54
2021/08/19 01:54:29;;;;;;;6.95;6.00;;;;;;;13.95;90.30;94488.79;1558093;91;20991;-56
2021/08/19 01:56:57;;;;;;;6.33;5.70;;;;;;;13.92;90.30;94484.81;1557998;92;21246;-55
2021/08/19 01:59:30;;;;;;;8.10;6.10;;;;;;;13.89;90.25;94488.53;1558053;92;21111;-55
2021/08/19 02:01:57;;;;;;;6.75;5.50;;;;;;;13.91;90.28;94486.83;1558142;92;21463;-55
2021/08/19 02:04:25;;;;;;;9.13;6.45;;;;;;;13.95;90.20;94494.32;1578338;90;21106;-55
2021/08/19 02:06:51;;;;;;;10.25;6.17;;;;;;;13.93;90.05;94489.11;1538517;93;21141;-55
2021/08/19 02:09:20;;;;;;;7.62;6.08;;;;;;;13.87;89.69;94479.95;1538415;93;20925;-55
2021/08/19 02:11:48;;;;;;;6.03;5.25;;;;;;;13.77;89.72;94484.80;1538485;93;21460;-55
2021/08/19 02:14:15;;;;;;;7.75;6.47;;;;;;;13.71;89.75;94480.39;1538511;93;21063;-55
2021/08/19 02:16:42;;;;;;;7.72;6.92;;;;;;;13.65;89.86;94483.05;1538387;93;21091;-55
2021/08/19 02:19:08;;;;;;;8.03;6.22;;;;;;;13.61;90.00;94481.72;1538736;93;21472;-55
2021/08/19 02:21:37;;;;;;;6.75;6.00;;;;;;;13.57;89.81;94479.73;1538473;93;21037;-56
2021/08/19 02:24:05;;;;;;;10.08;6.10;;;;;;;13.48;89.66;94482.58;1538337;92;21055;-55
2021/08/19 02:26:31;;;;;;;7.22;6.50;;;;;;;13.40;89.78;94484.93;1538483;93;21488;-55
2021/08/19 02:28:58;;;;;;;8.45;6.75;;;;;;;13.33;90.00;94483.91;1538362;93;21075;-55
2021/08/19 02:31:24;;;;;;;7.22;6.25;;;;;;;13.31;90.56;94480.09;1538472;92;21032;-55
2021/08/19 02:33:51;;;;;;;7.42;5.92;;;;;;;13.32;90.59;94482.99;1551981;92;21163;-55
2021/08/19 02:36:18;;;;;;;7.45;5.67;;;;;;;13.33;90.46;94490.05;1551793;92;21007;-56
2021/08/19 02:38:44;;;;;;;6.95;5.92;;;;;;;13.31;90.47;94485.61;1551920;91;21025;-55
2021/08/19 02:41:11;;;;;;;8.10;5.30;;;;;;;13.29;90.87;94488.08;1551981;92;21018;-55
2021/08/19 02:43:43;;;;;;;5.92;5.30;;;;;;;13.29;90.96;94490.21;1551883;92;21040;-55
2021/08/19 02:46:11;;;;;;;5.53;4.67;;;;;;;13.24;90.71;94494.27;1551962;92;21192;-55
2021/08/19 02:48:38;;;;;;;5.80;5.17;;;;;;;13.19;90.75;94486.59;1552039;92;21483;-55
2021/08/19 02:51:05;;;;;;;6.08;4.75;;;;;;;13.15;90.97;94492.31;1551822;92;21058;-55
2021/08/19 02:53:32;;;;;;;5.97;5.37;;;;;;;13.15;91.17;94489.55;1530303;92;21597;-55
2021/08/19 02:55:59;;;;;;;6.45;5.37;;;;;;;13.16;91.56;94497.20;1551978;92;21545;-55
2021/08/19 02:58:27;;;;;;;7.17;5.75;;;;;;;13.17;91.34;94489.84;1551938;92;21423;-55
2021/08/19 03:00:55;;;;;;;9.20;5.12;;;;;;;13.15;90.98;94493.70;1551890;92;21050;-55
2021/08/19 03:03:22;;;;;;;8.40;5.60;;;;;;;13.15;91.19;94493.70;1554213;90;21577;-55
2021/08/19 03:05:48;;;;;;;5.87;5.20;;;;;;;13.17;91.18;94495.97;1558230;92;21461;-55
2021/08/19 03:08:15;;;;;;;7.85;5.50;;;;;;;13.16;91.36;94495.83;1558087;91;21130;-56
2021/08/19 03:10:43;;;;;;;8.00;5.35;;;;;;;13.18;91.83;94496.90;1587732;90;21165;-55
2021/08/19 03:13:10;;;;;;;7.85;5.45;;;;;;;13.20;91.70;94506.08;1557892;92;21040;-55
2021/08/19 03:15:37;;;;;;;6.85;5.12;;;;;;;13.19;91.46;94506.71;1557968;92;21482;-55
2021/08/19 03:18:06;;;;;;;7.00;5.22;;;;;;;13.20;91.51;94510.22;1557971;92;21054;-56
2021/08/19 03:20:32;;;;;;;5.95;5.08;;;;;;;13.15;91.30;94515.80;1587829;90;21089;-55
2021/08/19 03:23:01;;;;;;;5.97;4.97;;;;;;;13.14;91.69;94517.03;1558149;91;21929;-55
2021/08/19 03:25:28;;;;;;;6.03;5.15;;;;;;;13.15;91.57;94521.92;1558153;92;20995;-55
2021/08/19 03:28:00;;;;;;;6.87;5.22;;;;;;;13.13;91.18;94518.87;1557944;92;21123;-55
2021/08/19 03:30:24;;;;;;;5.28;4.78;;;;;;;13.08;90.95;94529.19;1587372;90;21122;-56
2021/08/19 03:32:52;;;;;;;5.25;4.60;;;;;;;13.05;90.80;94523.22;1587662;90;20982;-55
2021/08/19 03:35:18;;;;;;;8.00;4.87;;;;;;;13.07;90.87;94533.18;1587632;89;21101;-56
2021/08/19 03:37:47;;;;;;;6.17;5.17;;;;;;;13.06;90.83;94528.89;1587530;89;21503;-55
2021/08/19 03:40:14;;;;;;;6.50;4.87;;;;;;;13.05;90.83;94532.88;1587735;90;21034;-55
2021/08/19 03:42:41;;;;;;;6.72;4.47;;;;;;;13.05;90.78;94534.27;1587855;90;21031;-55
2021/08/19 03:45:10;;;;;;;7.37;4.87;;;;;;;13.06;90.63;94535.16;1587680;89;20993;-55
2021/08/19 03:47:36;;;;;;;7.22;5.87;;;;;;;13.07;90.70;94540.09;1587853;89;21178;-55
2021/08/19 03:50:07;;;;;;;7.80;5.72;;;;;;;13.07;90.42;94534.56;1587602;90;21079;-54
2021/08/19 03:52:34;;;;;;;7.33;4.92;;;;;;;13.05;90.31;94534.27;1588152;90;21513;-54
2021/08/19 03:55:01;;;;;;;4.83;4.42;;;;;;;13.08;90.35;94531.95;1587778;89;20979;-54
2021/08/19 03:57:29;;;;;;;5.75;5.03;;;;;;;13.07;89.80;94537.33;1587574;89;21015;-55
2021/08/19 03:59:56;;;;;;;5.72;5.10;;;;;;;13.05;89.69;94543.93;1587662;90;22248;-54
2021/08/19 04:02:23;;;;;;;6.55;5.10;;;;;;;12.99;89.34;94544.40;1588015;90;21074;-55
2021/08/19 04:04:50;;;;;;;8.10;5.00;;;;;;;12.98;89.25;94542.88;1579258;89;21035;-54
2021/08/19 04:07:17;;;;;;;5.47;4.50;;;;;;;12.97;89.34;94551.01;1578079;91;21004;-56
2021/08/19 04:09:44;;;;;;;5.05;4.03;;;;;;;12.96;89.26;94549.48;1578067;91;21523;-57
2021/08/19 04:12:12;;;;;;;6.10;5.08;;;;;;;12.92;89.08;94550.23;1578105;90;21904;-54
2021/08/19 04:14:40;;;;;;;7.05;5.95;;;;;;;12.87;89.25;94559.16;1538238;93;21120;-55
2021/08/19 04:17:06;;;;;;;6.90;5.62;;;;;;;12.83;89.50;94553.02;1578286;90;21040;-55
2021/08/19 04:19:33;;;;;;;10.10;5.30;;;;;;;12.80;89.48;94560.86;1578072;91;21152;-55
2021/08/19 04:22:00;;;;;;;8.98;6.30;;;;;;;12.77;89.71;94562.58;1538557;92;21471;-55
2021/08/19 04:24:28;;;;;;;9.03;7.00;;;;;;;12.75;89.60;94560.87;1538293;92;21048;-54
2021/08/19 04:26:55;;;;;;;15.03;8.88;;;;;;;12.72;89.75;94567.95;1551914;92;21642;-54
2021/08/19 04:29:21;;;;;;;10.32;7.42;;;;;;;12.67;89.96;94561.66;1551904;92;21010;-54
2021/08/19 04:31:49;;;;;;;9.88;6.70;;;;;;;12.63;90.09;94567.36;1551793;92;21023;-54
2021/08/19 04:34:16;;;;;;;11.25;6.65;;;;;;;12.61;90.56;94563.53;1552061;92;21039;-54
2021/08/19 04:36:44;;;;;;;9.65;7.10;;;;;;;12.66;91.04;94560.91;1551990;91;21309;-55
2021/08/19 04:39:11;;;;;;;9.63;6.65;;;;;;;12.77;91.09;94563.95;1551814;92;21476;-55
2021/08/19 04:41:38;;;;;;;7.50;6.80;;;;;;;12.90;91.01;94571.41;1551804;92;21158;-54
2021/08/19 04:44:06;;;;;;;6.97;6.35;;;;;;;13.03;90.68;94568.46;1551888;92;21070;-55
2021/08/19 04:46:33;;;;;;;7.87;6.97;;;;;;;13.12;90.35;94573.96;1552124;91;21181;-55
2021/08/19 04:49:05;;;;;;;15.08;6.12;;;;;;;13.22;90.03;94575.44;1551831;92;21179;-55
2021/08/19 04:51:30;;;;;;;21.00;6.78;;;;;;;13.29;89.54;94582.02;1551517;92;20991;-55
2021/08/19 04:54:04;;;;;;;6.78;6.05;;;;;;;13.35;89.81;94573.23;1552125;91;21282;-55
2021/08/19 04:56:36;;;;;;;6.25;5.65;;;;;;;13.45;89.45;94570.58;1552046;92;21470;-56
2021/08/19 04:59:01;;;;;;;9.60;6.28;;;;;;;13.50;88.81;94569.92;1551438;92;21003;-57
2021/08/19 05:01:28;;;;;;;11.12;6.03;;;;;;;13.56;88.56;94573.56;1551847;91;23353;-55
2021/08/19 05:03:55;;;;;;;5.95;5.40;;;;;;;13.65;88.32;94571.50;1551758;90;21058;-55
2021/08/19 05:06:22;;;;;;;9.38;6.85;;;;;;;13.74;87.96;94566.53;1552044;92;21064;-55
2021/08/19 05:08:49;;;;;;;8.35;6.10;;;;;;;13.78;87.88;94560.23;1551875;92;21019;-55
2021/08/19 05:11:18;;;;;;;8.40;7.17;;;;;;;13.80;87.71;94557.12;1551770;92;21603;-54
2021/08/19 05:13:46;;;;;;;9.15;7.60;;;;;;;13.82;87.79;94553.89;1551759;92;21192;-55
2021/08/19 05:16:12;;;;;;;8.85;7.10;;;;;;;13.90;87.66;94557.81;1552015;92;21569;-56
2021/08/19 05:18:40;;;;;;;10.55;7.53;;;;;;;14.00;87.54;94552.37;1551691;92;21519;-55
2021/08/19 05:21:08;;;;;;;11.28;7.70;;;;;;;14.07;87.35;94554.16;1561737;91;21668;-56
2021/08/19 05:23:35;;;;;;;11.57;7.45;;;;;;;14.17;86.95;94552.85;1537561;93;21149;-57
2021/08/19 05:26:01;;;;;;;9.93;7.90;;;;;;;14.23;86.94;94552.36;1552278;92;21149;-56
2021/08/19 05:28:29;;;;;;;9.28;6.03;;;;;;;14.28;86.83;94548.92;1537569;93;21047;-55
2021/08/19 05:30:56;;;;;;;7.20;6.50;;;;;;;14.31;86.21;94554.11;1551803;92;21074;-55
2021/08/19 05:33:24;;;;;;;8.23;6.65;;;;;;;14.30;86.01;94552.58;1537625;92;21557;-55
2021/08/19 05:35:51;;;;;;;11.18;6.90;;;;;;;14.34;86.13;94554.56;1551750;92;21107;-55
2021/08/19 05:38:17;;;;;;;8.00;6.67;;;;;;;14.41;85.73;94555.56;1537595;92;21187;-56
2021/08/19 05:40:44;;;;;;;7.00;6.30;;;;;;;14.45;85.48;94557.66;1551765;92;21038;-56
2021/08/19 05:43:10;;;;;;;7.90;6.35;;;;;;;14.46;84.92;94557.05;1537913;92;21523;-55
2021/08/19 05:45:37;;;;;;;7.35;5.65;;;;;;;14.47;85.32;94560.71;1551941;92;21047;-55
2021/08/19 05:48:04;;;;;;;9.63;6.35;;;;;;;14.53;85.30;94560.21;1537594;92;21162;-55
2021/08/19 05:50:33;;;;;;;9.98;6.97;;;;;;;14.61;85.24;94561.34;1551923;91;21124;-55
2021/08/19 05:53:01;;;;;;;6.80;6.00;;;;;;;14.63;84.62;94561.63;1514552;94;21471;-55
2021/08/19 05:55:28;;;;;;;6.87;5.45;;;;;;;14.66;84.49;94566.20;1537744;91;21058;-57
2021/08/19 05:57:55;;;;;;;6.45;5.78;;;;;;;14.72;84.40;94560.16;1528054;93;21082;-57
2021/08/19 06:00:22;;;;;;;8.00;6.55;;;;;;;14.79;83.75;94566.69;1558398;91;21078;-60
2021/08/19 06:02:49;;;;;;;6.92;5.17;;;;;;;14.85;83.14;94557.84;1543956;91;21865;-56
2021/08/19 06:05:16;;;;;;;7.60;5.83;;;;;;;14.93;82.51;94549.30;1569925;89;21073;-58
2021/08/19 06:07:43;;;;;;;9.80;5.95;;;;;;;15.01;82.39;94551.06;1555277;91;21099;-58
2021/08/19 06:10:12;;;;;;;7.58;6.65;;;;;;;15.08;82.08;94558.36;1584927;90;21166;-58
2021/08/19 06:12:39;;;;;;;11.00;6.22;;;;;;;15.22;82.15;94558.94;1581991;90;21467;-57
2021/08/19 06:15:07;;;;;;;10.72;6.92;;;;;;;15.33;82.00;94556.37;1565218;90;21278;-56
2021/08/19 06:17:36;;;;;;;10.38;7.12;;;;;;;15.51;81.61;94558.90;1572366;89;21137;-57
2021/08/19 06:20:06;;;;;;;9.05;6.45;;;;;;;15.61;80.36;94550.61;1577158;90;21089;-57
2021/08/19 06:22:33;;;;;;;9.23;6.33;;;;;;;15.69;79.89;94546.16;1568333;90;21092;-57
2021/08/19 06:25:01;;;;;;;7.25;5.28;;;;;;;15.73;79.43;94549.48;1575507;90;21245;-58
2021/08/19 06:27:30;;;;;;;8.88;5.95;;;;;;;15.80;79.27;94544.93;1583986;89;22388;-56
2021/08/19 06:29:58;;;;;;;11.48;6.10;;;;;;;15.89;79.12;94548.94;1579511;90;21070;-58
2021/08/19 06:32:31;;;;;;;7.00;6.30;;;;;;;15.95;77.99;94546.23;1587274;89;21151;-57
2021/08/19 06:35:00;;;;;;;7.70;6.50;;;;;;;15.96;78.11;94558.25;1582510;90;21678;-57
2021/08/19 06:37:27;;;;;;;8.73;6.37;;;;;;;16.02;77.43;94553.52;1576863;88;21548;-60
2021/08/19 06:39:54;;;;;;;12.50;6.60;;;;;;;16.13;77.58;94559.19;1575023;90;21105;-57
2021/08/19 06:42:22;;;;;;;8.33;6.12;;;;;;;16.32;76.24;94561.80;1575055;90;22136;-57
2021/08/19 06:44:51;;;;;;;7.42;6.03;;;;;;;16.51;75.57;94560.30;1580824;90;21114;-62
2021/08/19 06:47:17;;;;;;;6.92;5.90;;;;;;;16.72;74.90;94558.98;1586648;90;21642;-57
2021/08/19 06:49:46;;;;;;;8.18;6.42;;;;;;;16.86;73.58;94556.69;1583357;90;21081;-59
2021/08/19 06:52:15;;;;;;;7.10;6.10;;;;;;;16.96;72.54;94555.27;1572616;90;21066;-59
2021/08/19 06:54:42;;;;;;;6.00;4.90;;;;;;;17.02;72.07;94560.24;1582518;88;21833;-60
2021/08/19 06:57:08;;;;;;;8.40;5.35;;;;;;;17.06;71.24;94555.25;1584355;89;21138;-59
2021/08/19 06:59:42;;;;;;;5.92;5.22;;;;;;;17.05;71.24;94555.08;1565493;90;21045;-61
2021/08/19 07:02:09;;;;;;;8.75;6.17;;;;;;;17.01;71.64;94561.50;1584376;90;21096;-60
2021/08/19 07:04:36;;;;;;;7.00;5.87;;;;;;;16.96;72.03;94562.22;1572442;90;21335;-60
2021/08/19 07:07:04;;;;;;;9.53;5.80;;;;;;;16.94;71.31;94571.69;1578931;90;21117;-62
2021/08/19 07:09:31;;;;;;;6.72;5.80;;;;;;;16.88;71.01;94568.11;1576523;90;21072;-58
2021/08/19 07:12:00;;;;;;;6.42;5.83;;;;;;;16.86;71.04;94575.53;1580734;90;21163;-63
2021/08/19 07:14:27;;;;;;;6.70;5.45;;;;;;;16.85;71.01;94576.01;1577679;90;21176;-61
2021/08/19 07:16:54;;;;;;;5.95;5.35;;;;;;;16.83;71.25;94571.57;1560144;90;22618;-58
2021/08/19 07:19:22;;;;;;;8.45;6.35;;;;;;;16.85;70.53;94577.40;1571630;90;21663;-57
2021/08/19 07:21:50;;;;;;;8.65;6.10;;;;;;;16.80;70.64;94565.61;1569284;90;21119;-62
2021/08/19 07:24:18;;;;;;;9.28;6.70;;;;;;;16.80;70.88;94560.83;1555224;90;21109;-60
2021/08/19 07:26:45;;;;;;;7.20;6.03;;;;;;;16.88;70.87;94565.32;1578107;90;21142;-57
2021/08/19 07:29:13;;;;;;;7.42;5.22;;;;;;;16.95;70.68;94567.65;1578222;90;21161;-57
2021/08/19 07:31:40;;;;;;;7.95;6.95;;;;;;;16.93;70.60;94562.57;1568021;90;21374;-61
2021/08/19 07:34:07;;;;;;;7.20;6.50;;;;;;;16.91;71.30;94556.00;1575732;90;21026;-62
2021/08/19 07:36:36;;;;;;;8.45;6.85;;;;;;;16.92;71.17;94558.27;1580281;90;21819;-62
2021/08/19 07:39:04;;;;;;;9.10;6.90;;;;;;;16.96;71.18;94551.11;1575464;90;21134;-62
2021/08/19 07:41:33;;;;;;;9.15;6.08;;;;;;;17.00;70.99;94552.42;1577056;90;21131;-59
2021/08/19 07:44:02;;;;;;;8.08;6.90;;;;;;;17.11;70.24;94547.57;1565872;89;21648;-61
2021/08/19 07:46:29;;;;;;;16.17;9.83;;;;;;;17.21;70.37;94544.72;1581097;90;21579;-58
2021/08/19 07:48:58;;;;;;;11.65;8.93;;;;;;;17.26;70.14;94546.80;1604522;87;21813;-60
2021/08/19 07:51:25;;;;;;;10.80;6.78;;;;;;;17.25;69.24;94543.25;1577833;90;21134;-59
2021/08/19 07:53:52;;;;;;;9.08;7.03;;;;;;;17.21;69.47;94539.16;1573397;90;21504;-57
2021/08/19 07:56:19;;;;;;;11.83;6.65;;;;;;;17.24;69.40;94545.90;1580161;90;21496;-58
2021/08/19 07:58:46;;;;;;;9.15;6.65;;;;;;;17.27;68.07;94546.94;1570108;90;21104;-63
2021/08/19 08:01:13;;;;;;;10.75;7.50;;;;;;;17.24;68.25;94545.90;1575132;90;21082;-65
2021/08/19 08:03:40;;;;;;;13.43;7.80;;;;;;;17.26;67.80;94544.02;1578417;90;21695;-59
2021/08/19 08:06:08;;;;;;;11.25;7.22;;;;;;;17.32;69.05;94542.78;1578451;90;21116;-58
2021/08/19 08:08:35;;;;;;;11.15;6.40;;;;;;;17.47;69.45;94538.50;1579142;90;21100;-61
2021/08/19 08:11:02;;;;;;;8.08;5.67;;;;;;;17.66;68.28;94538.23;1568880;90;21510;-59
2021/08/19 08:13:30;;;;;;;7.87;5.95;;;;;;;17.81;66.91;94534.66;1553910;90;21118;-54
2021/08/19 08:15:58;;;;;;;6.70;5.95;;;;;;;17.87;66.79;94531.26;1580460;89;21107;-62
2021/08/19 08:18:25;;;;;;;8.78;5.78;;;;;;;17.88;65.82;94532.16;1575182;90;21164;-58
2021/08/19 08:20:57;;;;;;;7.78;6.33;;;;;;;17.84;65.40;94534.40;1552405;90;21200;-58
2021/08/19 08:23:26;;;;;;;12.30;7.22;;;;;;;17.86;66.00;94530.48;1577322;90;21593;-65
2021/08/19 08:25:55;;;;;;;9.75;6.47;;;;;;;17.93;67.28;94525.85;1570944;90;21149;-60
2021/08/19 08:28:26;;;;;;;13.93;6.30;;;;;;;18.04;66.74;94527.27;1573523;90;21146;-61
2021/08/19 08:30:51;;;;;;;7.28;5.40;;;;;;;18.13;66.73;94525.67;1601129;87;21229;-62
2021/08/19 08:33:20;;;;;;;5.72;4.85;;;;;;;18.23;65.96;94531.91;1577041;90;21276;-61
2021/08/19 08:35:47;;;;;;;6.95;4.60;;;;;;;18.34;66.24;94533.38;1572426;90;21045;-62
2021/08/19 08:38:17;;;;;;;6.35;4.92;;;;;;;18.43;65.59;94528.95;1589457;88;21063;-62
2021/08/19 08:40:46;;;;;;;8.40;5.72;;;;;;;18.54;63.93;94529.00;1601650;88;21049;-63
2021/08/19 08:43:16;;;;;;;8.50;4.40;;;;;;;18.55;62.27;94524.94;1596724;88;21287;-61
2021/08/19 08:45:45;;;;;;;7.47;5.85;;;;;;;18.52;61.82;94525.95;1595709;88;21098;-63
2021/08/19 08:48:23;;;;;;;4.90;4.37;;;;;;;18.46;61.75;94516.80;1542236;90;32827;-58
2021/08/19 08:50:53;;;;;;;5.92;5.33;;;;;;;18.46;61.94;94517.45;1571226;90;21049;-60
2021/08/19 08:53:22;;;;;;;11.88;5.33;;;;;;;18.50;61.86;94514.53;1580867;90;21155;-66
2021/08/19 08:55:50;;;;;;;6.60;5.33;;;;;;;18.60;61.69;94510.25;1579686;90;21179;-55
2021/08/19 08:58:20;;;;;;;6.58;5.15;;;;;;;18.67;60.89;94510.39;1576372;90;21091;-60
2021/08/19 09:00:47;;;;;;;8.15;5.20;;;;;;;18.73;60.60;94509.75;1612102;88;21042;-59
2021/08/19 09:03:19;;;;;;;13.48;5.65;;;;;;;18.76;61.90;94501.16;1579935;90;21109;-61
2021/08/19 09:05:50;;;;;;;6.70;4.83;;;;;;;18.90;62.20;94499.38;1562223;90;21101;-59
2021/08/19 09:08:19;;;;;;;11.00;4.97;;;;;;;19.06;60.79;94496.61;1578719;90;21889;-60
2021/08/19 09:10:49;;;;;;;6.80;5.12;;;;;;;19.18;59.70;94495.99;1578662;90;21135;-61
2021/08/19 09:13:26;;;;;;;6.20;4.40;;;;;;;19.27;59.54;94493.70;1578558;90;21615;-59
2021/08/19 09:15:55;;;;;;;7.15;5.05;;;;;;;19.37;59.30;94494.19;1571987;90;22356;-58
2021/08/19 09:18:30;;;;;;;13.62;6.95;;;;;;;19.42;57.86;94493.41;1571300;90;21133;-65
2021/08/19 09:20:57;;;;;;;7.70;5.12;;;;;;;19.45;57.78;94486.19;1555247;90;21168;-60
2021/08/19 09:23:25;;;;;;;8.00;4.70;;;;;;;19.54;58.51;94490.08;1579581;90;21128;-60
2021/08/19 09:25:52;;;;;;;4.90;4.37;;;;;;;19.64;59.36;94485.76;1576201;90;21119;-57
2021/08/19 09:28:29;;;;;;;5.00;3.85;;;;;;;19.81;59.17;94482.28;1578115;90;21073;-62
2021/08/19 09:31:05;;;;;;;6.67;4.60;;;;;;;20.00;56.04;94481.05;1613233;88;21628;-56
2021/08/19 09:33:41;;;;;;;9.25;5.25;;;;;;;20.14;56.69;94487.73;1608018;87;21739;-62
2021/08/19 09:36:08;;;;;;;7.62;4.40;;;;;;;20.30;56.62;94477.12;1581663;87;21120;-61
2021/08/19 09:38:42;;;;;;;8.50;4.17;;;;;;;20.44;54.53;94471.84;1609568;87;21082;-59
2021/08/19 09:41:17;;;;;;;5.40;4.30;;;;;;;20.56;54.23;94462.86;1603345;87;21267;-61
2021/08/19 09:43:49;;;;;;;5.42;3.70;;;;;;;20.66;52.91;94467.49;1603011;89;21125;-61
2021/08/19 09:46:37;;;;;;;5.78;4.30;;;;;;;20.76;52.72;94465.91;1573844;90;21184;-62
2021/08/19 09:49:32;;;;;;;6.25;5.10;;;;;;;20.84;52.43;94462.06;1610194;89;21022;-60
2021/08/19 09:52:11;;;;;;;6.47;3.72;;;;;;;20.94;51.81;94461.84;1573321;90;21118;-61
2021/08/19 09:54:42;;;;;;;3.90;3.40;;;;;;;21.04;51.11;94457.44;1580733;90;22244;-62
2021/08/19 09:57:10;;;;;;;11.07;3.50;;;;;;;21.19;52.13;94452.23;1579829;90;21133;-57
2021/08/19 09:59:40;;;;;;;16.82;3.40;;;;;;;21.38;49.43;94453.69;1579335;89;21856;-62
2021/08/19 10:02:09;;;;;;;7.15;3.33;;;;;;;21.58;47.19;94457.42;1577299;90;21599;-63
2021/08/19 10:04:37;;;;;;;2.72;2.40;;;;;;;21.87;46.48;94455.97;1575275;90;21127;-59
2021/08/19 10:07:05;;;;;;;5.92;3.80;;;;;;;22.23;45.06;94453.09;1572686;90;21117;-60
2021/08/19 10:09:32;;;;;;;7.80;4.50;;;;;;;22.64;42.53;94447.98;1562767;89;21147;-62
2021/08/19 10:11:59;;;;;;;8.88;5.28;;;;;;;22.99;41.08;94447.69;1585212;90;21079;-60
2021/08/19 10:14:31;;;;;;;11.28;3.27;;;;;;;23.36;38.66;94452.55;1590346;87;21159;-60
2021/08/19 10:16:58;;;;;;;10.45;2.83;;;;;;;23.65;37.54;94451.52;1595937;89;21130;-58
2021/08/19 10:19:36;;;;;;;5.35;3.08;;;;;;;23.79;36.84;94451.61;1573470;89;21657;-57
2021/08/19 10:22:11;;;;;;;3.92;3.10;;;;;;;23.90;38.73;94455.66;1596029;89;21069;-58
2021/08/19 10:24:43;;;;;;;4.20;2.27;;;;;;;24.21;36.19;94448.48;1596583;89;21089;-58
2021/08/19 10:27:21;;;;;;;1.72;1.55;;;;;;;24.58;32.98;94450.30;1595851;87;21102;-60
2021/08/19 10:29:54;;;;;;;3.15;2.37;;;;;;;24.88;31.96;94442.16;1595955;88;21051;-60
2021/08/19 10:32:34;;;;;;;;;;;;;;;25.25;30.57;94448.20;1598376;89;21112;-60
2021/08/19 10:35:13;;;;;;;2.72;2.08;;;;;;;25.47;28.85;94434.21;1624675;87;20164;-58
2021/08/19 10:37:55;;;;;;;2.17;1.85;;;;;;;25.71;29.95;94434.55;1622709;86;21090;-57
2021/08/19 10:40:31;;;;;;;4.47;2.05;;;;;;;26.08;30.55;94429.87;1609736;87;21113;-58
2021/08/19 10:43:32;;;;;;;7.50;3.60;;;;;;;26.49;31.56;94440.32;1611747;88;21151;-56
2021/08/19 10:46:10;;;;;;;3.05;1.87;;;;;;;26.85;29.44;94432.53;1610482;87;21038;-60
2021/08/19 10:48:52;;;;;;;4.67;2.10;;;;;;;27.03;31.18;94427.21;1610939;89;21086;-60
2021/08/19 10:51:19;;;;;;;4.55;2.98;;;;;;;27.48;29.59;94425.88;1611223;87;21619;-59
2021/08/19 10:53:46;;;;;;;2.70;2.17;;;;;;;27.86;29.96;94428.70;1611155;89;21110;-57
2021/08/19 10:56:42;;;;;;;3.00;1.77;;;;;;;28.06;29.90;94430.63;1610512;89;21081;-59
2021/08/19 10:59:31;;;;;;;5.35;2.40;;;;;;;28.29;29.38;94427.75;1569626;90;21088;-59
2021/08/19 11:01:59;;;;;;;4.83;2.60;;;;;;;28.63;28.98;94433.70;1594747;87;21085;-60
2021/08/19 11:04:42;;;;;;;2.12;1.90;;;;;;;28.75;27.89;94429.13;1512299;91;21189;-60
2021/08/19 11:07:10;;;;;;;2.20;1.98;;;;;;;28.79;27.13;94429.48;1585008;88;21129;-65
2021/08/19 11:09:38;;;;;;;3.10;1.92;;;;;;;29.02;27.20;94417.38;1576405;88;21638;-65
2021/08/19 11:12:06;;;;;;;3.80;2.22;;;;;;;29.15;27.13;94425.61;1569156;88;21169;-62
2021/08/19 11:14:33;;;;;;;6.75;2.42;;;;;;;29.17;26.70;94424.38;1553610;88;21213;-65
2021/08/19 11:17:02;;;;;;;4.00;2.20;;;;;;;29.25;26.97;94425.06;1561440;88;21989;-64
2021/08/19 11:19:30;;;;;;;3.80;2.00;;;;;;;29.35;26.98;94413.19;1593626;88;21135;-63
2021/08/19 11:22:03;;;;;;;4.20;1.95;;;;;;;29.41;27.05;94415.89;1597263;88;22028;-61
2021/08/19 11:24:33;;;;;;;18.45;3.58;;;;;;;29.61;27.33;94420.48;1587146;88;21029;-60
2021/08/19 11:27:06;;;;;;;5.95;2.20;;;;;;;29.85;28.09;94417.53;1578202;88;21134;-59
2021/08/19 11:29:39;;;;;;;6.40;2.27;;;;;;;30.13;26.55;94414.33;1584647;89;21097;-60
2021/08/19 11:32:11;;;;;;;3.30;1.90;;;;;;;30.22;27.10;94413.67;1557583;90;21524;-62
2021/08/19 11:34:49;;;;;;;5.33;2.17;;;;;;;30.46;25.83;94414.25;1529572;92;21648;-65
2021/08/19 11:37:31;;;;;;;3.47;2.00;;;;;;;30.80;25.79;94403.52;1535222;91;21514;-63
2021/08/19 11:40:00;;;;;;;7.72;2.12;;;;;;;30.83;24.84;94397.42;1533998;92;27141;-63